Time;durP1;ratioP1;P1;durP2;ratioP2;P2;SDS_P1;SDS_P2;PMS_P1;PMS_P2;Temp;Humidity;BMP_temperature;BMP_pressure;BME280_temperature;BME280_humidity;BME280_pressure;Samples;Min_cycle;Max_cycle;Signal;HPM_P1;HPM_P2
2022/01/15 00:04:45;;;;;;;;;;;;;;;21.43;27.36;96876.28;10369745;28;1931;-56
2022/01/15 00:09:49;;;;;;;;;;;;;;;21.41;27.32;96869.69;10353894;28;1817;-57
2022/01/15 00:14:52;;;;;;;;;;;;;;;21.42;27.36;96871.28;10379428;28;1914;-57
2022/01/15 00:19:52;;;;;;;;;;;;;;;21.40;27.51;96860.19;10373759;28;1844;-58
2022/01/15 00:24:53;;;;;;;;;;;;;;;21.42;27.50;96858.88;10377520;28;1949;-57
2022/01/15 00:29:54;;;;;;;;;;;;;;;21.45;27.15;96863.63;10362604;28;2448;-57
2022/01/15 00:34:54;;;;;;;;;;;;;;;21.41;27.47;96862.56;10372183;28;1944;-57
2022/01/15 00:39:54;;;;;;;;;;;;;;;21.42;27.37;96860.72;10372500;28;1880;-53
2022/01/15 00:44:56;;;;;;;;;;;;;;;21.39;27.25;96861.25;10371754;28;1837;-58
2022/01/15 00:49:58;;;;;;;;;;;;;;;21.39;27.31;96853.31;10362180;28;1844;-57
2022/01/15 00:54:58;;;;;;;;;;;;;;;21.41;27.20;96856.50;10355179;28;1975;-56
2022/01/15 00:59:58;;;;;;;;;;;;;;;21.43;27.36;96857.06;10376717;28;1855;-58
2022/01/15 01:04:59;;;;;;;;;;;;;;;21.42;27.09;96850.97;10370646;28;1899;-58
2022/01/15 01:10:15;;;;;;;;;;;;;;;21.42;27.22;96852.81;10357580;28;2167;-59
2022/01/15 01:25:50;;;;;;;;;;;;;;;21.39;26.92;96842.78;10370237;28;1911;-60
2022/01/15 01:31:18;;;;;;;;;;;;;;;21.39;26.95;96843.53;10375443;28;1809;-53
2022/01/15 01:36:23;;;;;;;;;;;;;;;21.37;26.94;96834.31;10373471;28;1979;-57
2022/01/15 01:41:23;;;;;;;;;;;;;;;21.39;26.93;96826.94;10356892;28;1821;-59
2022/01/15 01:51:34;;;;;;;;;;;;;;;21.38;27.00;96809.53;10378364;28;1900;-60
2022/01/15 01:56:35;;;;;;;;;;;;;;;21.37;26.91;96813.22;10362780;28;1926;-59
2022/01/15 02:01:36;;;;;;;;;;;;;;;21.35;27.08;96810.03;10383049;28;1872;-59
2022/01/15 02:06:36;;;;;;;;;;;;;;;21.36;26.98;96806.34;10376381;28;2316;-60
2022/01/15 02:11:39;;;;;;;;;;;;;;;21.39;26.88;96796.06;10382693;28;1777;-58
2022/01/15 02:16:40;;;;;;;;;;;;;;;21.38;26.90;96783.16;10377090;28;1906;-59
2022/01/15 02:26:48;;;;;;;;;;;;;;;21.34;26.81;96787.34;10378118;28;1863;-56
2022/01/15 02:31:53;;;;;;;;;;;;;;;21.38;26.97;96772.59;10379777;28;1824;-57
2022/01/15 02:36:54;;;;;;;;;;;;;;;21.39;26.74;96774.19;10367654;28;1973;-60
2022/01/15 02:41:54;;;;;;;;;;;;;;;21.39;26.97;96774.19;10359740;28;2242;-57
2022/01/15 02:51:55;;;;;;;;;;;;;;;21.35;26.80;96758.06;10375544;28;1937;-58
2022/01/15 02:56:55;;;;;;;;;;;;;;;21.35;26.85;96762.56;10359037;28;2390;-59
2022/01/15 03:01:56;;;;;;;;;;;;;;;21.37;26.94;96747.28;10360112;28;2380;-57
2022/01/15 03:06:56;;;;;;;;;;;;;;;21.38;26.84;96747.03;10383824;28;2034;-60
2022/01/15 03:12:01;;;;;;;;;;;;;;;21.41;26.69;96737.81;10361284;28;1972;-60
2022/01/15 03:17:02;;;;;;;;;;;;;;;21.38;26.80;96733.84;10382434;28;2066;-59
2022/01/15 03:22:03;;;;;;;;;;;;;;;21.38;26.67;96720.66;10376547;28;2028;-56
2022/01/15 03:27:03;;;;;;;;;;;;;;;21.37;26.83;96720.91;10369537;28;2002;-59
2022/01/15 03:32:04;;;;;;;;;;;;;;;21.40;26.57;96726.47;10361750;28;1989;-58
2022/01/15 03:37:04;;;;;;;;;;;;;;;21.43;26.59;96722.53;10364098;28;2020;-57
2022/01/15 03:42:11;;;;;;;;;;;;;;;21.42;26.45;96713.81;10375826;28;1946;-60
2022/01/15 03:47:12;;;;;;;;;;;;;;;21.39;26.78;96711.66;10374327;28;2012;-59
2022/01/15 03:52:12;;;;;;;;;;;;;;;21.39;26.50;96708.25;10378889;28;2431;-59
2022/01/15 03:57:12;;;;;;;;;;;;;;;21.41;26.50;96711.44;10370655;28;1983;-57
2022/01/15 04:02:13;;;;;;;;;;;;;;;21.39;26.67;96716.16;10381209;28;1947;-59
2022/01/15 04:07:13;;;;;;;;;;;;;;;21.39;26.71;96714.31;10376524;28;2036;-59
2022/01/15 04:12:13;;;;;;;;;;;;;;;21.39;26.53;96705.63;10356103;28;1940;-57
2022/01/15 04:17:14;;;;;;;;;;;;;;;21.39;26.51;96718.81;10355520;28;1989;-59
2022/01/15 04:22:14;;;;;;;;;;;;;;;21.36;26.45;96722.75;10364671;28;1920;-59
2022/01/15 04:27:15;;;;;;;;;;;;;;;21.36;26.56;96717.47;10349731;28;2004;-59
2022/01/15 04:32:15;;;;;;;;;;;;;;;21.38;26.50;96714.56;10371439;28;1997;-59
2022/01/15 04:37:20;;;;;;;;;;;;;;;21.37;26.49;96718.28;10363386;28;1941;-59
2022/01/15 04:42:22;;;;;;;;;;;;;;;21.39;26.48;96721.44;10369371;28;1984;-59
2022/01/15 04:47:22;;;;;;;;;;;;;;;21.38;26.56;96714.56;10372541;28;2030;-59
2022/01/15 04:52:23;;;;;;;;;;;;;;;21.41;26.56;96711.44;10367934;28;1978;-59
2022/01/15 04:57:23;;;;;;;;;;;;;;;21.38;26.45;96711.94;10368375;28;1962;-58
2022/01/15 05:02:24;;;;;;;;;;;;;;;21.35;26.56;96707.19;10373522;28;2018;-56
2022/01/15 05:07:24;;;;;;;;;;;;;;;21.37;26.41;96707.72;10357091;28;1883;-59
2022/01/15 05:17:28;;;;;;;;;;;;;;;21.39;26.47;96713.53;10363149;28;1934;-58
2022/01/15 05:22:28;;;;;;;;;;;;;;;21.39;26.38;96710.91;10378343;28;1935;-59
2022/01/15 05:27:28;;;;;;;;;;;;;;;21.38;26.35;96709.28;10377777;28;1900;-55
2022/01/15 05:32:29;;;;;;;;;;;;;;;21.37;26.56;96718.28;10372532;28;1974;-57
2022/01/15 05:37:29;;;;;;;;;;;;;;;21.37;26.34;96707.72;10355662;28;1951;-57
2022/01/15 05:42:30;;;;;;;;;;;;;;;21.42;26.17;96710.38;10355528;28;2372;-59
2022/01/15 05:47:30;;;;;;;;;;;;;;;21.36;26.60;96716.66;10372172;28;2052;-57
2022/01/15 05:52:30;;;;;;;;;;;;;;;21.39;26.56;96711.66;10372526;28;2006;-56
2022/01/15 05:57:31;;;;;;;;;;;;;;;21.36;26.27;96712.19;10378753;28;1946;-59
2022/01/15 06:02:31;;;;;;;;;;;;;;;21.38;26.22;96719.84;10369396;28;1947;-59
2022/01/15 06:07:32;;;;;;;;;;;;;;;21.38;26.15;96717.22;10372008;28;1934;-59
2022/01/15 06:12:41;;;;;;;;;;;;;;;21.40;26.27;96723.03;10364064;28;2127;-58
2022/01/15 06:17:41;;;;;;;;;;;;;;;21.37;26.36;96720.91;10363678;28;1909;-57
2022/01/15 06:22:42;;;;;;;;;;;;;;;21.39;26.33;96724.09;10350493;28;1857;-58
2022/01/15 06:27:42;;;;;;;;;;;;;;;21.39;26.26;96716.94;10378953;28;1935;-58
2022/01/15 06:32:42;;;;;;;;;;;;;;;21.39;26.23;96724.84;10371361;28;2033;-59
2022/01/15 06:37:44;;;;;;;;;;;;;;;21.39;26.22;96734.63;10372907;28;1989;-56
2022/01/15 06:42:44;;;;;;;;;;;;;;;21.38;26.31;96727.75;10368073;28;1992;-57
2022/01/15 06:47:45;;;;;;;;;;;;;;;21.38;26.24;96727.75;10363925;28;1967;-57
2022/01/15 06:52:45;;;;;;;;;;;;;;;21.36;26.21;96749.13;10364178;28;2149;-58
2022/01/15 06:57:45;;;;;;;;;;;;;;;21.39;26.23;96732.00;10362738;28;2008;-58
2022/01/15 07:02:46;;;;;;;;;;;;;;;21.36;26.34;96737.78;10363242;28;2035;-58
2022/01/15 07:07:47;;;;;;;;;;;;;;;21.36;26.10;96733.28;10358789;28;1960;-58
2022/01/15 07:12:47;;;;;;;;;;;;;;;21.35;26.16;96739.59;10371157;28;2007;-58
2022/01/15 07:17:48;;;;;;;;;;;;;;;21.37;26.29;96742.00;10377117;28;1959;-59
2022/01/15 07:22:49;;;;;;;;;;;;;;;21.36;26.10;96749.13;10358356;28;2000;-57
2022/01/15 07:27:49;;;;;;;;;;;;;;;21.38;26.29;96756.78;10366269;28;1933;-58
2022/01/15 07:32:50;;;;;;;;;;;;;;;21.39;26.21;96747.81;10374099;28;1954;-59
2022/01/15 07:37:50;;;;;;;;;;;;;;;21.33;26.10;96741.69;10365481;28;2050;-56
2022/01/15 07:42:51;;;;;;;;;;;;;;;21.31;26.11;96735.88;10362453;28;2220;-59
2022/01/15 07:47:51;;;;;;;;;;;;;;;21.37;26.08;96744.66;10369980;28;2036;-57
2022/01/15 07:52:52;;;;;;;;;;;;;;;21.35;26.07;96744.88;10364989;28;2021;-57
2022/01/15 07:57:52;;;;;;;;;;;;;;;21.33;26.12;96743.56;10372882;28;2049;-55
2022/01/15 08:02:54;;;;;;;;;;;;;;;21.33;26.03;96741.69;10363537;28;1955;-57
2022/01/15 08:07:54;;;;;;;;;;;;;;;21.33;26.05;96731.16;10334081;28;2200;-58
2022/01/15 08:12:54;;;;;;;;;;;;;;;21.29;26.24;96734.56;10345050;28;2142;-60
2022/01/15 08:17:55;;;;;;;;;;;;;;;21.36;26.59;96724.59;10350743;28;2113;-58
2022/01/15 08:22:55;;;;;;;;;;;;;;;21.36;26.78;96719.31;10348736;28;1964;-57
2022/01/15 08:27:56;;;;;;;;;;;;;;;21.37;26.94;96723.53;10367329;28;2023;-60
2022/01/15 08:32:56;;;;;;;;;;;;;;;21.38;27.35;96710.09;10352463;28;1994;-56
2022/01/15 08:37:59;;;;;;;;;;;;;;;21.37;27.25;96702.44;10335946;28;2022;-56
2022/01/15 08:43:00;;;;;;;;;;;;;;;21.37;27.53;96700.59;10356213;28;2053;-58
2022/01/15 08:48:00;;;;;;;;;;;;;;;21.37;27.52;96703.22;10365459;28;1996;-56
2022/01/15 08:53:01;;;;;;;;;;;;;;;21.40;27.34;96699.28;10364896;28;2045;-57
2022/01/15 08:58:02;;;;;;;;;;;;;;;21.38;27.53;96698.75;10370584;28;2048;-57
2022/01/15 09:03:02;;;;;;;;;;;;;;;21.25;26.54;96692.06;10356181;28;1966;-57
2022/01/15 09:08:03;;;;;;;;;;;;;;;21.16;27.19;96690.19;10340402;28;1950;-54
2022/01/15 09:13:03;;;;;;;;;;;;;;;21.21;27.20;96684.91;10370668;28;2092;-54
2022/01/15 09:18:04;;;;;;;;;;;;;;;21.17;27.41;96683.84;10342762;28;1997;-58
2022/01/15 09:23:05;;;;;;;;;;;;;;;21.13;27.30;96682.78;10356250;28;1968;-58
2022/01/15 09:33:25;;;;;;;;;;;;;;;21.11;27.18;96684.88;10346986;28;2001;-57
2022/01/15 09:38:25;;;;;;;;;;;;;;;21.05;27.34;96684.84;10365128;28;2058;-58
2022/01/15 09:43:25;;;;;;;;;;;;;;;21.00;27.31;96676.88;10360633;28;2011;-57
2022/01/15 09:48:27;;;;;;;;;;;;;;;20.96;27.27;96680.25;10329966;28;2017;-58
2022/01/15 09:53:27;;;;;;;;;;;;;;;20.89;27.33;96675.22;10347148;28;2006;-57
2022/01/15 09:58:28;;;;;;;;;;;;;;;20.86;27.31;96682.81;10341631;28;2165;-58
2022/01/15 10:03:29;;;;;;;;;;;;;;;20.84;27.21;96671.75;10363014;28;1895;-58
2022/01/15 10:08:29;;;;;;;;;;;;;;;20.79;27.24;96674.34;10359212;28;1851;-58
2022/01/15 10:13:29;;;;;;;;;;;;;;;20.69;27.50;96669.78;10373786;28;1938;-56
2022/01/15 10:18:31;;;;;;;;;;;;;;;20.67;27.27;96661.34;10361792;28;1968;-56
2022/01/15 10:23:31;;;;;;;;;;;;;;;20.63;27.34;96652.34;10378238;28;1941;-56
2022/01/15 10:28:50;;;;;;;;;;;;;;;20.61;27.43;96657.06;10351596;28;1924;-55
2022/01/15 10:33:51;;;;;;;;;;;;;;;20.59;27.44;96658.38;10365134;28;1829;-56
2022/01/15 10:38:52;;;;;;;;;;;;;;;20.57;27.54;96649.94;10377479;28;2006;-53
2022/01/15 10:43:52;;;;;;;;;;;;;;;20.51;27.39;96638.56;10371277;28;1868;-56
2022/01/15 10:48:52;;;;;;;;;;;;;;;20.47;27.47;96634.84;10372213;28;1900;-58
2022/01/15 10:53:55;;;;;;;;;;;;;;;20.48;27.57;96631.19;10359201;28;1890;-57
2022/01/15 10:59:08;;;;;;;;;;;;;;;20.42;27.61;96624.28;10349832;28;1898;-58
2022/01/15 11:04:10;;;;;;;;;;;;;;;20.40;27.40;96629.00;10358183;28;2022;-54
2022/01/15 11:09:11;;;;;;;;;;;;;;;20.33;27.50;96623.16;10368485;28;1971;-56
2022/01/15 11:14:11;;;;;;;;;;;;;;;20.32;27.61;96611.00;10365724;28;1861;-55
2022/01/15 11:19:12;;;;;;;;;;;;;;;20.28;27.52;96604.66;10362817;28;1968;-56
2022/01/15 11:24:12;;;;;;;;;;;;;;;20.28;27.62;96600.19;10351942;28;1916;-54
2022/01/15 11:29:13;;;;;;;;;;;;;;;20.23;27.61;96594.09;10364367;28;1847;-56
2022/01/15 11:34:14;;;;;;;;;;;;;;;20.22;27.36;96590.66;10352297;28;1824;-53
2022/01/15 11:39:19;;;;;;;;;;;;;;;20.19;27.51;96591.19;10375432;28;2021;-57
2022/01/15 11:44:20;;;;;;;;;;;;;;;20.17;27.52;96587.19;10359556;28;1896;-57
2022/01/15 11:49:23;;;;;;;;;;;;;;;20.13;27.64;96578.97;10350152;28;1924;-56
2022/01/15 11:54:24;;;;;;;;;;;;;;;20.13;27.53;96580.81;10367489;28;1982;-56
2022/01/15 11:59:27;;;;;;;;;;;;;;;20.07;27.70;96571.31;10378490;28;1977;-56
2022/01/15 12:04:28;;;;;;;;;;;;;;;20.05;27.67;96568.13;10356479;28;1829;-55
2022/01/15 12:09:38;;;;;;;;;;;;;;;20.06;27.48;96564.44;10375085;28;1797;-56
2022/01/15 12:14:57;;;;;;;;;;;;;;;20.02;27.57;96563.34;10352697;28;1976;-54
2022/01/15 12:20:02;;;;;;;;;;;;;;;19.96;27.66;96553.81;10351262;28;1875;-55
2022/01/15 12:25:03;;;;;;;;;;;;;;;20.04;27.75;96548.09;10369964;28;1880;-56
2022/01/15 12:30:11;;;;;;;;;;;;;;;19.98;27.67;96541.22;10348478;28;1866;-55
2022/01/15 12:35:15;;;;;;;;;;;;;;;20.02;27.60;96537.03;10374161;28;1970;-55
2022/01/15 12:40:16;;;;;;;;;;;;;;;20.02;27.47;96529.13;10352116;28;1863;-57
2022/01/15 12:45:16;;;;;;;;;;;;;;;20.06;27.39;96527.59;10353367;28;1794;-57
2022/01/15 12:50:17;;;;;;;;;;;;;;;20.02;27.57;96518.59;10353444;28;1891;-56
2022/01/15 12:55:17;;;;;;;;;;;;;;;20.08;27.37;96521.03;10357176;28;1974;-55
2022/01/15 13:00:25;;;;;;;;;;;;;;;20.06;27.32;96511.81;10344703;28;1875;-57
2022/01/15 13:05:26;;;;;;;;;;;;;;;20.09;27.45;96500.78;10350700;28;1849;-57
2022/01/15 13:10:26;;;;;;;;;;;;;;;20.05;27.39;96497.84;10338994;28;1878;-57
2022/01/15 13:15:27;;;;;;;;;;;;;;;20.06;27.38;96488.13;10358238;28;1906;-57
2022/01/15 13:20:28;;;;;;;;;;;;;;;20.07;27.41;96484.44;10363388;28;1817;-57
2022/01/15 13:25:29;;;;;;;;;;;;;;;20.08;27.42;96478.13;10356863;28;1830;-57
2022/01/15 13:30:30;;;;;;;;;;;;;;;20.04;27.55;96482.31;10357496;28;1791;-57
2022/01/15 13:35:31;;;;;;;;;;;;;;;20.09;27.54;96474.47;10369498;28;2101;-55
2022/01/15 13:40:35;;;;;;;;;;;;;;;20.12;27.57;96471.31;10375965;28;1828;-55
2022/01/15 13:45:38;;;;;;;;;;;;;;;20.08;27.63;96478.13;10373473;28;1829;-52
2022/01/15 13:56:14;;;;;;;;;;;;;;;20.13;27.50;96465.78;10362000;28;1911;-56
2022/01/15 14:01:27;;;;;;;;;;;;;;;20.15;27.60;96462.91;10366930;28;1961;-54
2022/01/15 14:06:27;;;;;;;;;;;;;;;20.17;27.43;96463.47;10364680;28;2407;-56
2022/01/15 14:11:28;;;;;;;;;;;;;;;20.17;27.54;96460.81;10345726;28;1925;-59
2022/01/15 14:16:29;;;;;;;;;;;;;;;20.22;27.39;96458.25;10358217;28;1977;-56
2022/01/15 14:26:33;;;;;;;;;;;;;;;20.21;27.41;96457.47;10379942;28;1792;-57
2022/01/15 14:31:33;;;;;;;;;;;;;;;20.22;27.40;96458.25;10379056;28;1797;-57
2022/01/15 14:36:34;;;;;;;;;;;;;;;20.18;27.55;96447.41;10365491;28;1989;-54
2022/01/15 14:41:34;;;;;;;;;;;;;;;20.26;27.34;96451.41;10374825;28;1826;-56
2022/01/15 14:46:35;;;;;;;;;;;;;;;20.24;27.45;96461.41;10361652;28;1877;-57
2022/01/15 14:51:35;;;;;;;;;;;;;;;20.23;27.42;96457.22;10381027;28;1852;-55
2022/01/15 14:56:36;;;;;;;;;;;;;;;20.23;27.52;96451.94;10381012;28;1906;-57
2022/01/15 15:01:36;;;;;;;;;;;;;;;20.27;27.46;96455.66;10362415;28;1779;-56
2022/01/15 15:06:38;;;;;;;;;;;;;;;20.26;27.48;96452.22;10349061;28;2015;-53
2022/01/15 15:11:38;;;;;;;;;;;;;;;20.25;27.38;96457.75;10353399;28;1855;-55
2022/01/15 15:16:38;;;;;;;;;;;;;;;20.31;27.21;96458.56;10366665;28;1910;-57
2022/01/15 15:21:39;;;;;;;;;;;;;;;20.26;27.27;96454.84;10361543;28;1763;-57
2022/01/15 15:26:39;;;;;;;;;;;;;;;20.27;27.39;96455.66;10360120;28;1874;-57
2022/01/15 15:31:40;;;;;;;;;;;;;;;20.26;27.27;96454.84;10377398;28;2409;-55
2022/01/15 15:36:40;;;;;;;;;;;;;;;20.25;27.26;96447.22;10376054;28;1906;-56
2022/01/15 15:41:42;;;;;;;;;;;;;;;20.29;27.32;96443.03;10383658;28;1560;-56
2022/01/15 15:46:42;;;;;;;;;;;;;;;20.30;27.03;96443.81;10379401;28;1819;-57
2022/01/15 15:51:43;;;;;;;;;;;;;;;20.28;27.24;96431.69;10373614;28;1841;-57
2022/01/15 15:56:44;;;;;;;;;;;;;;;20.26;27.27;96433.00;10381454;28;1977;-58
2022/01/15 16:01:45;;;;;;;;;;;;;;;20.26;27.39;96427.72;10365769;28;1845;-57
2022/01/15 16:06:45;;;;;;;;;;;;;;;20.26;27.42;96430.34;10364733;28;2479;-58
2022/01/15 16:11:46;;;;;;;;;;;;;;;20.28;27.18;96433.53;10362519;28;1782;-54
2022/01/15 16:16:46;;;;;;;;;;;;;;;20.28;27.33;96425.63;10363309;28;1972;-57
2022/01/15 16:21:47;;;;;;;;;;;;;;;20.27;27.34;96429.31;10363874;28;2019;-57
2022/01/15 16:26:47;;;;;;;;;;;;;;;20.25;27.37;96437.50;10360369;28;1887;-56
2022/01/15 16:31:48;;;;;;;;;;;;;;;20.26;27.32;96435.63;10364224;28;1825;-58
2022/01/15 16:36:48;;;;;;;;;;;;;;;20.26;27.27;96430.34;10375969;28;1918;-57
2022/01/15 16:41:48;;;;;;;;;;;;;;;20.27;27.16;96421.44;10355446;28;1850;-57
2022/01/15 16:46:49;;;;;;;;;;;;;;;20.28;27.29;96415.09;10351187;28;1821;-57
2022/01/15 16:51:49;;;;;;;;;;;;;;;20.27;27.03;96418.78;10358496;28;1765;-58
2022/01/15 16:56:51;;;;;;;;;;;;;;;20.29;27.24;96416.69;10372948;28;1914;-57
2022/01/15 17:01:51;;;;;;;;;;;;;;;20.26;27.26;96418.00;10377240;28;1781;-57
2022/01/15 17:06:52;;;;;;;;;;;;;;;20.27;26.98;96418.78;10379611;28;1812;-56
2022/01/15 17:11:52;;;;;;;;;;;;;;;20.25;27.26;96410.34;10359711;28;1817;-52
2022/01/15 17:16:53;;;;;;;;;;;;;;;20.24;27.14;96404.28;10375436;28;2051;-56
2022/01/15 17:21:53;;;;;;;;;;;;;;;20.27;27.11;96403.81;10356580;28;1934;-54
2022/01/15 17:26:54;;;;;;;;;;;;;;;20.25;27.26;96403.25;10375124;28;1749;-57
2022/01/15 17:31:55;;;;;;;;;;;;;;;20.23;27.37;96392.19;10376879;28;1773;-55
2022/01/15 17:36:55;;;;;;;;;;;;;;;20.23;27.35;96386.13;10354288;28;1962;-56
2022/01/15 17:41:56;;;;;;;;;;;;;;;20.21;27.39;96381.13;10361979;28;1892;-56
2022/01/15 17:46:57;;;;;;;;;;;;;;;20.25;27.20;96389.31;10354653;28;1853;-56
2022/01/15 17:51:58;;;;;;;;;;;;;;;20.23;27.22;96394.03;10373077;28;1959;-57
2022/01/15 17:56:58;;;;;;;;;;;;;;;20.23;27.31;96394.81;10352930;28;1985;-59
2022/01/15 18:01:59;;;;;;;;;;;;;;;20.21;27.13;96402.19;10378393;28;1808;-58
2022/01/15 18:06:59;;;;;;;;;;;;;;;20.23;27.29;96401.94;10359252;28;1868;-53
2022/01/15 18:12:00;;;;;;;;;;;;;;;20.23;26.99;96400.09;10366970;28;1853;-58
2022/01/15 18:17:01;;;;;;;;;;;;;;;20.21;27.33;96407.47;10372500;28;2050;-58
2022/01/15 18:22:02;;;;;;;;;;;;;;;20.23;27.14;96404.56;10374845;28;1702;-58
2022/01/15 18:27:03;;;;;;;;;;;;;;;20.24;27.21;96408.75;10376717;28;2062;-58
2022/01/15 18:32:03;;;;;;;;;;;;;;;20.24;27.25;96409.56;10342069;28;1765;-59
2022/01/15 18:37:04;;;;;;;;;;;;;;;20.21;27.19;96401.38;10379933;28;1915;-59
2022/01/15 18:42:04;;;;;;;;;;;;;;;20.22;27.18;96395.84;10359302;28;1907;-59
2022/01/15 18:47:05;;;;;;;;;;;;;;;20.20;27.22;96399.78;10361895;28;1896;-58
2022/01/15 18:52:05;;;;;;;;;;;;;;;20.22;27.18;96395.06;10377708;28;1883;-57
2022/01/15 18:57:06;;;;;;;;;;;;;;;20.21;27.27;96382.97;10362959;28;1910;-58
2022/01/15 19:02:07;;;;;;;;;;;;;;;20.19;27.29;96379.75;10362333;28;1825;-57
2022/01/15 19:07:07;;;;;;;;;;;;;;;20.21;27.24;96367.97;10379707;28;2114;-57
2022/01/15 19:12:08;;;;;;;;;;;;;;;20.19;27.26;96359.53;10365110;28;1869;-57
2022/01/15 19:17:09;;;;;;;;;;;;;;;20.19;27.20;96363.97;10377964;28;1930;-58
2022/01/15 19:22:09;;;;;;;;;;;;;;;20.25;27.12;96376.13;10362230;28;1969;-58
2022/01/15 19:27:09;;;;;;;;;;;;;;;20.21;27.17;96396.94;10357161;28;1797;-57
2022/01/15 19:32:10;;;;;;;;;;;;;;;20.22;27.01;96424.03;10382815;28;1773;-58
2022/01/15 19:37:10;;;;;;;;;;;;;;;20.24;27.03;96466.69;10370621;28;1956;-55
2022/01/15 19:42:11;;;;;;;;;;;;;;;20.23;27.18;96454.56;10378410;28;1782;-57
2022/01/15 19:47:12;;;;;;;;;;;;;;;20.20;27.13;96365.56;10377792;28;1863;-57
2022/01/15 19:52:15;;;;;;;;;;;;;;;20.20;27.15;96350.56;10376136;28;1900;-57
2022/01/15 19:57:15;;;;;;;;;;;;;;;20.20;27.07;96345.31;10373870;28;1910;-58
2022/01/15 20:02:16;;;;;;;;;;;;;;;20.20;27.06;96297.13;10359924;28;2015;-57
2022/01/15 20:07:17;;;;;;;;;;;;;;;20.20;26.97;96294.50;10382687;28;1848;-56
2022/01/15 20:12:17;;;;;;;;;;;;;;;20.20;27.05;96307.66;10362033;28;1789;-59
2022/01/15 20:17:18;;;;;;;;;;;;;;;20.20;26.99;96312.91;10364123;28;1917;-58
2022/01/15 20:22:18;;;;;;;;;;;;;;;20.18;27.28;96309.72;10362059;28;1887;-58
2022/01/15 20:27:19;;;;;;;;;;;;;;;20.22;27.07;96352.94;10360744;28;2027;-58
2022/01/15 20:32:19;;;;;;;;;;;;;;;20.20;27.21;96352.41;10359245;28;1940;-57
2022/01/15 20:37:20;;;;;;;;;;;;;;;20.22;26.99;96337.16;10380093;28;1921;-55
2022/01/15 20:42:21;;;;;;;;;;;;;;;20.19;27.20;96306.06;10376849;28;1842;-58
2022/01/15 20:47:22;;;;;;;;;;;;;;;20.22;27.01;96332.69;10373671;28;1805;-56
2022/01/15 20:52:22;;;;;;;;;;;;;;;20.23;27.11;96307.97;10374710;28;2270;-58
2022/01/15 20:57:23;;;;;;;;;;;;;;;20.18;27.04;96307.09;10368245;28;1922;-56
2022/01/15 21:02:24;;;;;;;;;;;;;;;20.20;27.11;96302.41;10371289;28;1793;-57
2022/01/15 21:07:25;;;;;;;;;;;;;;;20.20;27.12;96303.19;10374626;28;1947;-58
2022/01/15 21:12:26;;;;;;;;;;;;;;;20.17;27.19;96326.59;10367833;28;1896;-57
2022/01/15 21:17:27;;;;;;;;;;;;;;;20.21;27.03;96325.84;10373178;28;1981;-57
2022/01/15 21:22:27;;;;;;;;;;;;;;;20.17;26.95;96318.69;10376305;28;1853;-55
2022/01/15 21:27:28;;;;;;;;;;;;;;;20.21;26.93;96293.47;10373212;28;1461;-57
2022/01/15 21:32:28;;;;;;;;;;;;;;;20.17;27.13;96293.13;10357927;28;2179;-56
2022/01/15 21:37:28;;;;;;;;;;;;;;;20.19;27.15;96275.31;10380581;28;1910;-55
2022/01/15 21:42:30;;;;;;;;;;;;;;;20.20;26.99;96313.72;10352603;28;2209;-56
2022/01/15 21:47:30;;;;;;;;;;;;;;;20.20;27.11;96328.72;10371212;28;2206;-56
2022/01/15 21:52:31;;;;;;;;;;;;;;;20.20;26.99;96326.88;10373805;28;2209;-56
2022/01/15 21:57:31;;;;;;;;;;;;;;;20.17;26.95;96335.25;10375465;28;2157;-55
2022/01/15 22:02:32;;;;;;;;;;;;;;;20.21;26.86;96319.78;10372950;28;1813;-57
2022/01/15 22:07:32;;;;;;;;;;;;;;;20.19;27.04;96306.06;10380285;28;1943;-56
2022/01/15 22:12:44;;;;;;;;;;;;;;;20.14;26.97;96293.66;10357438;28;1970;-56
2022/01/15 22:17:45;;;;;;;;;;;;;;;20.17;27.05;96298.41;10358661;28;1914;-56
2022/01/15 22:22:45;;;;;;;;;;;;;;;20.16;26.93;96298.66;10363292;28;1821;-57
2022/01/15 22:27:46;;;;;;;;;;;;;;;20.18;27.09;96307.09;10374601;28;1714;-56
2022/01/15 22:32:46;;;;;;;;;;;;;;;20.18;26.98;96304.47;10380200;28;1963;-56
2022/01/15 22:37:47;;;;;;;;;;;;;;;20.19;27.01;96306.06;10378294;28;1983;-55
2022/01/15 22:42:47;;;;;;;;;;;;;;;20.14;27.00;96298.13;10358612;28;1999;-58
2022/01/15 22:47:48;;;;;;;;;;;;;;;20.16;27.01;96294.19;10383586;28;1931;-57
2022/01/15 22:52:48;;;;;;;;;;;;;;;20.19;26.83;96306.06;10365978;28;1831;-55
2022/01/15 22:57:49;;;;;;;;;;;;;;;20.14;27.15;96298.94;10383066;28;1906;-58
2022/01/15 23:02:49;;;;;;;;;;;;;;;20.17;27.00;96282.59;10361829;28;1853;-56
2022/01/15 23:07:50;;;;;;;;;;;;;;;20.18;26.81;96299.19;10363407;28;1793;-54
2022/01/15 23:12:59;;;;;;;;;;;;;;;20.19;26.99;96304.25;10375565;28;1911;-58
2022/01/15 23:17:59;;;;;;;;;;;;;;;20.22;27.01;96290.56;10363368;28;2004;-58
2022/01/15 23:23:00;;;;;;;;;;;;;;;20.25;27.00;96287.44;10385580;28;1789;-55
2022/01/15 23:28:00;;;;;;;;;;;;;;;20.27;26.90;96271.38;10376016;28;1914;-55
2022/01/15 23:33:01;;;;;;;;;;;;;;;20.28;26.89;96272.94;10378034;28;1806;-55
2022/01/15 23:38:01;;;;;;;;;;;;;;;20.32;26.71;96274.00;10370769;28;1978;-55
2022/01/15 23:43:04;;;;;;;;;;;;;;;20.32;26.74;96262.69;10375317;28;1840;-56
2022/01/15 23:48:04;;;;;;;;;;;;;;;20.36;26.65;96264.53;10362855;28;2263;-55
2022/01/15 23:53:05;;;;;;;;;;;;;;;20.31;26.84;96264.53;10360740;28;1854;-56
2022/01/15 23:58:05;;;;;;;;;;;;;;;20.34;26.70;96271.91;10361360;28;1923;-56
